To NAV CANADA Home Page Login to a new session Search on AWWS site Feedback and Comments Disclaimer Vers la page française équivalente Tips FAQ What's new on the site To the Forecasts and Observations / NOTAM section To "File a Flight Plan" website Publications and other links Update of the User's profile FIC Telephone Numbers My Weather Data Folder Route Weather Data Regional Weather Data Local Weather Data To the Forecasts and Observations / NOTAM section
Request Generated 09/26/2016 at 06:58:07 UTC . Weather information available at that time is displayed.

METAR/TAF

EUREKA/NU    

METAR CWEU 260600Z 14019KT 15SM -RA OVC018 01/00 A2962 RMK SC8
SLP032=
METAR CWEU 260500Z 14014KT 15SM -RA OVC018 01/M00 A2962 RMK SC8
SLP033=
METAR CWEU 260400Z 14012KT 15SM -RA OVC018 01/M00 A2963 RMK SC8
SLP035=

*** REMARK        : Forecast period has ended; this was the last TAF issued
*** REMARQUE : La période de prévision est échue; ceci était le dernier TAF qui a été émis
TAF CYEU 252340Z 2600/2602 ADVISORY OFFSITE 15015G25KT P6SM -RA
OVC008 TEMPO 2600/2602 OVC015
RMK NXT FCST WILL BE ISSUED AT 261045Z=
Your time UTC time
Weather data provided by Environment Canada and NAV CANADA